<?xml version="1.0" encoding="UTF-8" standalone="no" ?>
<gpx xmlns="http://www.topografix.com/GPX/1/1" xmlns:xsi="http://www.w3.org/2001/XMLSchema-instance" xsi:schemaLocation="http://www.topografix.com/GPX/1/1 http://www.topografix.com/GPX/1/1/gpx.xsd" version="1.1" creator="VisuGPX - https://www.visugpx.com">
  <metadata>
    <name>BOIS DE ROCHEFORT 6</name>
  </metadata>
  <trk>
    <name><![CDATA[BOIS DE ROCHEFORT 6]]></name>
    <trkseg>
      <trkpt lat="48.59341" lon="1.965">
        <ele>96.75</ele>
        <time>2021-03-12T08:19:01Z</time>
      </trkpt>
      <trkpt lat="48.59341" lon="1.965">
        <ele>96.27</ele>
        <time>2021-03-12T08:19:02Z</time>
      </trkpt>
      <trkpt lat="48.59349" lon="1.96514">
        <ele>97.23</ele>
        <time>2021-03-12T08:19:13Z</time>
      </trkpt>
      <trkpt lat="48.59356" lon="1.96523">
        <ele>98.19</ele>
        <time>2021-03-12T08:19:20Z</time>
      </trkpt>
      <trkpt lat="48.59362" lon="1.96529">
        <ele>98.67</ele>
        <time>2021-03-12T08:19:26Z</time>
      </trkpt>
      <trkpt lat="48.59368" lon="1.96539">
        <ele>99.15</ele>
        <time>2021-03-12T08:19:34Z</time>
      </trkpt>
      <trkpt lat="48.59373" lon="1.96545">
        <ele>100.11</ele>
        <time>2021-03-12T08:19:40Z</time>
      </trkpt>
      <trkpt lat="48.59383" lon="1.96559">
        <ele>103</ele>
        <time>2021-03-12T08:19:56Z</time>
      </trkpt>
      <trkpt lat="48.59397" lon="1.96574">
        <ele>105.4</ele>
        <time>2021-03-12T08:20:11Z</time>
      </trkpt>
      <trkpt lat="48.59413" lon="1.9659">
        <ele>107.81</ele>
        <time>2021-03-12T08:20:25Z</time>
      </trkpt>
      <trkpt lat="48.59415" lon="1.96592">
        <ele>108.29</ele>
        <time>2021-03-12T08:20:28Z</time>
      </trkpt>
      <trkpt lat="48.59419" lon="1.96599">
        <ele>109.25</ele>
        <time>2021-03-12T08:20:33Z</time>
      </trkpt>
      <trkpt lat="48.59434" lon="1.96619">
        <ele>111.17</ele>
        <time>2021-03-12T08:20:48Z</time>
      </trkpt>
      <trkpt lat="48.59438" lon="1.96622">
        <ele>111.17</ele>
        <time>2021-03-12T08:20:51Z</time>
      </trkpt>
      <trkpt lat="48.59449" lon="1.96633">
        <ele>112.13</ele>
        <time>2021-03-12T08:21:05Z</time>
      </trkpt>
      <trkpt lat="48.59455" lon="1.96636">
        <ele>112.61</ele>
        <time>2021-03-12T08:21:15Z</time>
      </trkpt>
      <trkpt lat="48.5946" lon="1.96638">
        <ele>113.09</ele>
        <time>2021-03-12T08:21:19Z</time>
      </trkpt>
      <trkpt lat="48.59482" lon="1.9665">
        <ele>115.01</ele>
        <time>2021-03-12T08:21:36Z</time>
      </trkpt>
      <trkpt lat="48.59489" lon="1.96658">
        <ele>116.46</ele>
        <time>2021-03-12T08:21:43Z</time>
      </trkpt>
      <trkpt lat="48.59494" lon="1.96664">
        <ele>116.46</ele>
        <time>2021-03-12T08:21:48Z</time>
      </trkpt>
      <trkpt lat="48.5951" lon="1.96674">
        <ele>115.98</ele>
        <time>2021-03-12T08:22:05Z</time>
      </trkpt>
      <trkpt lat="48.59511" lon="1.96677">
        <ele>115.98</ele>
        <time>2021-03-12T08:22:21Z</time>
      </trkpt>
      <trkpt lat="48.59513" lon="1.96679">
        <ele>116.46</ele>
        <time>2021-03-12T08:22:41Z</time>
      </trkpt>
      <trkpt lat="48.59512" lon="1.96678">
        <ele>117.9</ele>
        <time>2021-03-12T08:23:09Z</time>
      </trkpt>
      <trkpt lat="48.59512" lon="1.96678">
        <ele>117.42</ele>
        <time>2021-03-12T08:23:24Z</time>
      </trkpt>
      <trkpt lat="48.59513" lon="1.96679">
        <ele>116.94</ele>
        <time>2021-03-12T08:23:39Z</time>
      </trkpt>
      <trkpt lat="48.59521" lon="1.96686">
        <ele>115.98</ele>
        <time>2021-03-12T08:23:46Z</time>
      </trkpt>
      <trkpt lat="48.59535" lon="1.96703">
        <ele>115.98</ele>
        <time>2021-03-12T08:24:00Z</time>
      </trkpt>
      <trkpt lat="48.59552" lon="1.96719">
        <ele>114.53</ele>
        <time>2021-03-12T08:24:13Z</time>
      </trkpt>
      <trkpt lat="48.59569" lon="1.96737">
        <ele>114.05</ele>
        <time>2021-03-12T08:24:28Z</time>
      </trkpt>
      <trkpt lat="48.59584" lon="1.96755">
        <ele>113.57</ele>
        <time>2021-03-12T08:24:41Z</time>
      </trkpt>
      <trkpt lat="48.59605" lon="1.96774">
        <ele>113.57</ele>
        <time>2021-03-12T08:24:56Z</time>
      </trkpt>
      <trkpt lat="48.59621" lon="1.96791">
        <ele>114.05</ele>
        <time>2021-03-12T08:25:09Z</time>
      </trkpt>
      <trkpt lat="48.59629" lon="1.968">
        <ele>113.57</ele>
        <time>2021-03-12T08:25:16Z</time>
      </trkpt>
      <trkpt lat="48.59646" lon="1.96818">
        <ele>113.09</ele>
        <time>2021-03-12T08:25:32Z</time>
      </trkpt>
      <trkpt lat="48.59647" lon="1.96822">
        <ele>113.57</ele>
        <time>2021-03-12T08:25:47Z</time>
      </trkpt>
      <trkpt lat="48.59648" lon="1.96824">
        <ele>113.09</ele>
        <time>2021-03-12T08:25:49Z</time>
      </trkpt>
      <trkpt lat="48.59655" lon="1.96829">
        <ele>112.13</ele>
        <time>2021-03-12T08:25:54Z</time>
      </trkpt>
      <trkpt lat="48.59663" lon="1.96842">
        <ele>110.69</ele>
        <time>2021-03-12T08:26:06Z</time>
      </trkpt>
      <trkpt lat="48.59679" lon="1.9686">
        <ele>111.17</ele>
        <time>2021-03-12T08:26:22Z</time>
      </trkpt>
      <trkpt lat="48.59696" lon="1.96875">
        <ele>113.09</ele>
        <time>2021-03-12T08:26:33Z</time>
      </trkpt>
      <trkpt lat="48.59703" lon="1.96885">
        <ele>114.05</ele>
        <time>2021-03-12T08:26:41Z</time>
      </trkpt>
      <trkpt lat="48.59719" lon="1.96898">
        <ele>113.57</ele>
        <time>2021-03-12T08:26:53Z</time>
      </trkpt>
      <trkpt lat="48.59718" lon="1.96901">
        <ele>113.57</ele>
        <time>2021-03-12T08:26:56Z</time>
      </trkpt>
      <trkpt lat="48.59709" lon="1.96916">
        <ele>111.65</ele>
        <time>2021-03-12T08:27:09Z</time>
      </trkpt>
      <trkpt lat="48.59704" lon="1.96926">
        <ele>110.69</ele>
        <time>2021-03-12T08:27:16Z</time>
      </trkpt>
      <trkpt lat="48.597" lon="1.96948">
        <ele>109.25</ele>
        <time>2021-03-12T08:27:29Z</time>
      </trkpt>
      <trkpt lat="48.59696" lon="1.96963">
        <ele>107.81</ele>
        <time>2021-03-12T08:27:45Z</time>
      </trkpt>
      <trkpt lat="48.59689" lon="1.96981">
        <ele>106.36</ele>
        <time>2021-03-12T08:28:03Z</time>
      </trkpt>
      <trkpt lat="48.59677" lon="1.97004">
        <ele>105.88</ele>
        <time>2021-03-12T08:28:19Z</time>
      </trkpt>
      <trkpt lat="48.59669" lon="1.97024">
        <ele>106.36</ele>
        <time>2021-03-12T08:28:36Z</time>
      </trkpt>
      <trkpt lat="48.59658" lon="1.97044">
        <ele>107.32</ele>
        <time>2021-03-12T08:28:46Z</time>
      </trkpt>
      <trkpt lat="48.5964" lon="1.97082">
        <ele>108.77</ele>
        <time>2021-03-12T08:28:59Z</time>
      </trkpt>
      <trkpt lat="48.59636" lon="1.97091">
        <ele>108.77</ele>
        <time>2021-03-12T08:29:02Z</time>
      </trkpt>
      <trkpt lat="48.59616" lon="1.97134">
        <ele>109.73</ele>
        <time>2021-03-12T08:29:18Z</time>
      </trkpt>
      <trkpt lat="48.59593" lon="1.97174">
        <ele>110.21</ele>
        <time>2021-03-12T08:29:36Z</time>
      </trkpt>
      <trkpt lat="48.59591" lon="1.97179">
        <ele>110.69</ele>
        <time>2021-03-12T08:29:38Z</time>
      </trkpt>
      <trkpt lat="48.59574" lon="1.97211">
        <ele>112.61</ele>
        <time>2021-03-12T08:29:53Z</time>
      </trkpt>
      <trkpt lat="48.5956" lon="1.97245">
        <ele>114.53</ele>
        <time>2021-03-12T08:30:09Z</time>
      </trkpt>
      <trkpt lat="48.59553" lon="1.97256">
        <ele>114.05</ele>
        <time>2021-03-12T08:30:16Z</time>
      </trkpt>
      <trkpt lat="48.59549" lon="1.97288">
        <ele>114.53</ele>
        <time>2021-03-12T08:30:29Z</time>
      </trkpt>
      <trkpt lat="48.5954" lon="1.97319">
        <ele>111.65</ele>
        <time>2021-03-12T08:30:44Z</time>
      </trkpt>
      <trkpt lat="48.59528" lon="1.97345">
        <ele>111.65</ele>
        <time>2021-03-12T08:30:59Z</time>
      </trkpt>
      <trkpt lat="48.59517" lon="1.97366">
        <ele>111.65</ele>
        <time>2021-03-12T08:31:16Z</time>
      </trkpt>
      <trkpt lat="48.59501" lon="1.97398">
        <ele>111.17</ele>
        <time>2021-03-12T08:31:32Z</time>
      </trkpt>
      <trkpt lat="48.59503" lon="1.97421">
        <ele>111.65</ele>
        <time>2021-03-12T08:31:48Z</time>
      </trkpt>
      <trkpt lat="48.59508" lon="1.9744">
        <ele>109.25</ele>
        <time>2021-03-12T08:32:02Z</time>
      </trkpt>
      <trkpt lat="48.59522" lon="1.97455">
        <ele>108.29</ele>
        <time>2021-03-12T08:32:17Z</time>
      </trkpt>
      <trkpt lat="48.59523" lon="1.97456">
        <ele>107.32</ele>
        <time>2021-03-12T08:32:18Z</time>
      </trkpt>
      <trkpt lat="48.59528" lon="1.9746">
        <ele>106.84</ele>
        <time>2021-03-12T08:32:22Z</time>
      </trkpt>
      <trkpt lat="48.59548" lon="1.97475">
        <ele>104.44</ele>
        <time>2021-03-12T08:32:37Z</time>
      </trkpt>
      <trkpt lat="48.59571" lon="1.97493">
        <ele>103</ele>
        <time>2021-03-12T08:32:55Z</time>
      </trkpt>
      <trkpt lat="48.59592" lon="1.97505">
        <ele>101.56</ele>
        <time>2021-03-12T08:33:11Z</time>
      </trkpt>
      <trkpt lat="48.59612" lon="1.97518">
        <ele>100.6</ele>
        <time>2021-03-12T08:33:25Z</time>
      </trkpt>
      <trkpt lat="48.59627" lon="1.97525">
        <ele>100.6</ele>
        <time>2021-03-12T08:33:36Z</time>
      </trkpt>
      <trkpt lat="48.59652" lon="1.9754">
        <ele>100.11</ele>
        <time>2021-03-12T08:33:53Z</time>
      </trkpt>
      <trkpt lat="48.59673" lon="1.97552">
        <ele>97.71</ele>
        <time>2021-03-12T08:34:09Z</time>
      </trkpt>
      <trkpt lat="48.59689" lon="1.97566">
        <ele>96.27</ele>
        <time>2021-03-12T08:34:24Z</time>
      </trkpt>
      <trkpt lat="48.59707" lon="1.97573">
        <ele>95.79</ele>
        <time>2021-03-12T08:34:35Z</time>
      </trkpt>
      <trkpt lat="48.59712" lon="1.97577">
        <ele>95.79</ele>
        <time>2021-03-12T08:34:38Z</time>
      </trkpt>
      <trkpt lat="48.5973" lon="1.97597">
        <ele>95.31</ele>
        <time>2021-03-12T08:34:51Z</time>
      </trkpt>
      <trkpt lat="48.59752" lon="1.9761">
        <ele>95.31</ele>
        <time>2021-03-12T08:35:07Z</time>
      </trkpt>
      <trkpt lat="48.59758" lon="1.97613">
        <ele>95.79</ele>
        <time>2021-03-12T08:35:20Z</time>
      </trkpt>
      <trkpt lat="48.59758" lon="1.97615">
        <ele>95.79</ele>
        <time>2021-03-12T08:35:36Z</time>
      </trkpt>
      <trkpt lat="48.59759" lon="1.97614">
        <ele>95.79</ele>
        <time>2021-03-12T08:35:42Z</time>
      </trkpt>
      <trkpt lat="48.59771" lon="1.97621">
        <ele>94.35</ele>
        <time>2021-03-12T08:35:54Z</time>
      </trkpt>
      <trkpt lat="48.59783" lon="1.97629">
        <ele>93.87</ele>
        <time>2021-03-12T08:36:05Z</time>
      </trkpt>
      <trkpt lat="48.59787" lon="1.97631">
        <ele>93.39</ele>
        <time>2021-03-12T08:36:10Z</time>
      </trkpt>
      <trkpt lat="48.59807" lon="1.97646">
        <ele>91.46</ele>
        <time>2021-03-12T08:36:26Z</time>
      </trkpt>
      <trkpt lat="48.59826" lon="1.97658">
        <ele>91.46</ele>
        <time>2021-03-12T08:36:36Z</time>
      </trkpt>
      <trkpt lat="48.59837" lon="1.97664">
        <ele>90.98</ele>
        <time>2021-03-12T08:36:46Z</time>
      </trkpt>
      <trkpt lat="48.59851" lon="1.97677">
        <ele>90.98</ele>
        <time>2021-03-12T08:37:02Z</time>
      </trkpt>
      <trkpt lat="48.59868" lon="1.9769">
        <ele>91.46</ele>
        <time>2021-03-12T08:37:18Z</time>
      </trkpt>
      <trkpt lat="48.59892" lon="1.97705">
        <ele>92.9</ele>
        <time>2021-03-12T08:37:35Z</time>
      </trkpt>
      <trkpt lat="48.59918" lon="1.97716">
        <ele>94.35</ele>
        <time>2021-03-12T08:37:52Z</time>
      </trkpt>
      <trkpt lat="48.59941" lon="1.97729">
        <ele>94.35</ele>
        <time>2021-03-12T08:38:07Z</time>
      </trkpt>
      <trkpt lat="48.59962" lon="1.97747">
        <ele>93.87</ele>
        <time>2021-03-12T08:38:21Z</time>
      </trkpt>
      <trkpt lat="48.59965" lon="1.9775">
        <ele>93.39</ele>
        <time>2021-03-12T08:38:23Z</time>
      </trkpt>
      <trkpt lat="48.59981" lon="1.97766">
        <ele>90.5</ele>
        <time>2021-03-12T08:38:38Z</time>
      </trkpt>
      <trkpt lat="48.59985" lon="1.97769">
        <ele>90.5</ele>
        <time>2021-03-12T08:38:40Z</time>
      </trkpt>
      <trkpt lat="48.60002" lon="1.97786">
        <ele>89.06</ele>
        <time>2021-03-12T08:38:54Z</time>
      </trkpt>
      <trkpt lat="48.60023" lon="1.97811">
        <ele>89.06</ele>
        <time>2021-03-12T08:39:10Z</time>
      </trkpt>
      <trkpt lat="48.60027" lon="1.97815">
        <ele>88.58</ele>
        <time>2021-03-12T08:39:15Z</time>
      </trkpt>
      <trkpt lat="48.60044" lon="1.97833">
        <ele>88.1</ele>
        <time>2021-03-12T08:39:30Z</time>
      </trkpt>
      <trkpt lat="48.6007" lon="1.9786">
        <ele>88.1</ele>
        <time>2021-03-12T08:39:48Z</time>
      </trkpt>
      <trkpt lat="48.60071" lon="1.97861">
        <ele>88.1</ele>
        <time>2021-03-12T08:39:49Z</time>
      </trkpt>
      <trkpt lat="48.60081" lon="1.9787">
        <ele>88.1</ele>
        <time>2021-03-12T08:39:54Z</time>
      </trkpt>
      <trkpt lat="48.60102" lon="1.97889">
        <ele>88.1</ele>
        <time>2021-03-12T08:40:07Z</time>
      </trkpt>
      <trkpt lat="48.60119" lon="1.97907">
        <ele>87.62</ele>
        <time>2021-03-12T08:40:20Z</time>
      </trkpt>
      <trkpt lat="48.60132" lon="1.97922">
        <ele>88.1</ele>
        <time>2021-03-12T08:40:33Z</time>
      </trkpt>
      <trkpt lat="48.60137" lon="1.97928">
        <ele>87.14</ele>
        <time>2021-03-12T08:40:37Z</time>
      </trkpt>
      <trkpt lat="48.60153" lon="1.97946">
        <ele>86.66</ele>
        <time>2021-03-12T08:40:51Z</time>
      </trkpt>
      <trkpt lat="48.60173" lon="1.97963">
        <ele>87.62</ele>
        <time>2021-03-12T08:41:05Z</time>
      </trkpt>
      <trkpt lat="48.60185" lon="1.97981">
        <ele>87.14</ele>
        <time>2021-03-12T08:41:17Z</time>
      </trkpt>
      <trkpt lat="48.60201" lon="1.97997">
        <ele>86.18</ele>
        <time>2021-03-12T08:41:30Z</time>
      </trkpt>
      <trkpt lat="48.6022" lon="1.98009">
        <ele>86.18</ele>
        <time>2021-03-12T08:41:44Z</time>
      </trkpt>
      <trkpt lat="48.60232" lon="1.98024">
        <ele>85.69</ele>
        <time>2021-03-12T08:41:55Z</time>
      </trkpt>
      <trkpt lat="48.60236" lon="1.9803">
        <ele>85.69</ele>
        <time>2021-03-12T08:41:59Z</time>
      </trkpt>
      <trkpt lat="48.60251" lon="1.98047">
        <ele>85.21</ele>
        <time>2021-03-12T08:42:11Z</time>
      </trkpt>
      <trkpt lat="48.60267" lon="1.98061">
        <ele>84.25</ele>
        <time>2021-03-12T08:42:25Z</time>
      </trkpt>
      <trkpt lat="48.60269" lon="1.98064">
        <ele>84.25</ele>
        <time>2021-03-12T08:42:27Z</time>
      </trkpt>
      <trkpt lat="48.60285" lon="1.98082">
        <ele>83.77</ele>
        <time>2021-03-12T08:42:40Z</time>
      </trkpt>
      <trkpt lat="48.60301" lon="1.98105">
        <ele>83.77</ele>
        <time>2021-03-12T08:42:55Z</time>
      </trkpt>
      <trkpt lat="48.60312" lon="1.98114">
        <ele>83.77</ele>
        <time>2021-03-12T08:43:03Z</time>
      </trkpt>
      <trkpt lat="48.60329" lon="1.9813">
        <ele>83.77</ele>
        <time>2021-03-12T08:43:19Z</time>
      </trkpt>
      <trkpt lat="48.60329" lon="1.98135">
        <ele>83.29</ele>
        <time>2021-03-12T08:43:25Z</time>
      </trkpt>
      <trkpt lat="48.60332" lon="1.98137">
        <ele>83.77</ele>
        <time>2021-03-12T08:43:27Z</time>
      </trkpt>
      <trkpt lat="48.60352" lon="1.98153">
        <ele>82.81</ele>
        <time>2021-03-12T08:43:42Z</time>
      </trkpt>
      <trkpt lat="48.60362" lon="1.98165">
        <ele>82.33</ele>
        <time>2021-03-12T08:43:53Z</time>
      </trkpt>
      <trkpt lat="48.60383" lon="1.98184">
        <ele>81.37</ele>
        <time>2021-03-12T08:44:08Z</time>
      </trkpt>
      <trkpt lat="48.60395" lon="1.98201">
        <ele>80.41</ele>
        <time>2021-03-12T08:44:19Z</time>
      </trkpt>
      <trkpt lat="48.60408" lon="1.9821">
        <ele>80.89</ele>
        <time>2021-03-12T08:44:30Z</time>
      </trkpt>
      <trkpt lat="48.60426" lon="1.98227">
        <ele>79.93</ele>
        <time>2021-03-12T08:44:44Z</time>
      </trkpt>
      <trkpt lat="48.60434" lon="1.98242">
        <ele>79.93</ele>
        <time>2021-03-12T08:44:57Z</time>
      </trkpt>
      <trkpt lat="48.60442" lon="1.98252">
        <ele>80.41</ele>
        <time>2021-03-12T08:45:04Z</time>
      </trkpt>
      <trkpt lat="48.60446" lon="1.98257">
        <ele>80.41</ele>
        <time>2021-03-12T08:45:07Z</time>
      </trkpt>
      <trkpt lat="48.60462" lon="1.98272">
        <ele>79.93</ele>
        <time>2021-03-12T08:45:19Z</time>
      </trkpt>
      <trkpt lat="48.6047" lon="1.98284">
        <ele>79.93</ele>
        <time>2021-03-12T08:45:25Z</time>
      </trkpt>
      <trkpt lat="48.60483" lon="1.98298">
        <ele>79.93</ele>
        <time>2021-03-12T08:45:36Z</time>
      </trkpt>
      <trkpt lat="48.60507" lon="1.98325">
        <ele>79.93</ele>
        <time>2021-03-12T08:45:53Z</time>
      </trkpt>
      <trkpt lat="48.60508" lon="1.98326">
        <ele>79.93</ele>
        <time>2021-03-12T08:45:54Z</time>
      </trkpt>
      <trkpt lat="48.60515" lon="1.98335">
        <ele>79.93</ele>
        <time>2021-03-12T08:46:00Z</time>
      </trkpt>
      <trkpt lat="48.60527" lon="1.98348">
        <ele>79.93</ele>
        <time>2021-03-12T08:46:13Z</time>
      </trkpt>
      <trkpt lat="48.60538" lon="1.98349">
        <ele>80.89</ele>
        <time>2021-03-12T08:46:26Z</time>
      </trkpt>
      <trkpt lat="48.60545" lon="1.98349">
        <ele>80.89</ele>
        <time>2021-03-12T08:46:39Z</time>
      </trkpt>
      <trkpt lat="48.60553" lon="1.98347">
        <ele>80.89</ele>
        <time>2021-03-12T08:46:54Z</time>
      </trkpt>
      <trkpt lat="48.6056" lon="1.98344">
        <ele>79.93</ele>
        <time>2021-03-12T08:47:10Z</time>
      </trkpt>
      <trkpt lat="48.60572" lon="1.98339">
        <ele>79.45</ele>
        <time>2021-03-12T08:47:24Z</time>
      </trkpt>
      <trkpt lat="48.60586" lon="1.98334">
        <ele>79.45</ele>
        <time>2021-03-12T08:47:39Z</time>
      </trkpt>
      <trkpt lat="48.60595" lon="1.9833">
        <ele>79.45</ele>
        <time>2021-03-12T08:47:53Z</time>
      </trkpt>
      <trkpt lat="48.60613" lon="1.98317">
        <ele>79.93</ele>
        <time>2021-03-12T08:48:08Z</time>
      </trkpt>
      <trkpt lat="48.60633" lon="1.98302">
        <ele>79.93</ele>
        <time>2021-03-12T08:48:25Z</time>
      </trkpt>
      <trkpt lat="48.60649" lon="1.98287">
        <ele>80.41</ele>
        <time>2021-03-12T08:48:40Z</time>
      </trkpt>
      <trkpt lat="48.60664" lon="1.98253">
        <ele>80.41</ele>
        <time>2021-03-12T08:48:54Z</time>
      </trkpt>
      <trkpt lat="48.60674" lon="1.98221">
        <ele>79.45</ele>
        <time>2021-03-12T08:49:09Z</time>
      </trkpt>
      <trkpt lat="48.60691" lon="1.98187">
        <ele>79.45</ele>
        <time>2021-03-12T08:49:25Z</time>
      </trkpt>
      <trkpt lat="48.60695" lon="1.9818">
        <ele>79.45</ele>
        <time>2021-03-12T08:49:29Z</time>
      </trkpt>
      <trkpt lat="48.60715" lon="1.98136">
        <ele>78.48</ele>
        <time>2021-03-12T08:49:44Z</time>
      </trkpt>
      <trkpt lat="48.60728" lon="1.98113">
        <ele>78</ele>
        <time>2021-03-12T08:49:58Z</time>
      </trkpt>
      <trkpt lat="48.60741" lon="1.98079">
        <ele>78</ele>
        <time>2021-03-12T08:50:14Z</time>
      </trkpt>
      <trkpt lat="48.6075" lon="1.98065">
        <ele>78</ele>
        <time>2021-03-12T08:50:29Z</time>
      </trkpt>
      <trkpt lat="48.60759" lon="1.98052">
        <ele>77.52</ele>
        <time>2021-03-12T08:50:47Z</time>
      </trkpt>
      <trkpt lat="48.60764" lon="1.98038">
        <ele>76.56</ele>
        <time>2021-03-12T08:51:04Z</time>
      </trkpt>
      <trkpt lat="48.60766" lon="1.98032">
        <ele>77.52</ele>
        <time>2021-03-12T08:51:08Z</time>
      </trkpt>
      <trkpt lat="48.60766" lon="1.98008">
        <ele>77.04</ele>
        <time>2021-03-12T08:51:20Z</time>
      </trkpt>
      <trkpt lat="48.60766" lon="1.98003">
        <ele>78</ele>
        <time>2021-03-12T08:51:22Z</time>
      </trkpt>
      <trkpt lat="48.6077" lon="1.97984">
        <ele>78.97</ele>
        <time>2021-03-12T08:51:34Z</time>
      </trkpt>
      <trkpt lat="48.60768" lon="1.97978">
        <ele>78.97</ele>
        <time>2021-03-12T08:51:47Z</time>
      </trkpt>
      <trkpt lat="48.60765" lon="1.97971">
        <ele>79.45</ele>
        <time>2021-03-12T08:52:04Z</time>
      </trkpt>
      <trkpt lat="48.60747" lon="1.97953">
        <ele>79.45</ele>
        <time>2021-03-12T08:52:20Z</time>
      </trkpt>
      <trkpt lat="48.60724" lon="1.97921">
        <ele>79.45</ele>
        <time>2021-03-12T08:52:35Z</time>
      </trkpt>
      <trkpt lat="48.60696" lon="1.97887">
        <ele>79.93</ele>
        <time>2021-03-12T08:52:52Z</time>
      </trkpt>
      <trkpt lat="48.60689" lon="1.97879">
        <ele>79.93</ele>
        <time>2021-03-12T08:52:57Z</time>
      </trkpt>
      <trkpt lat="48.60665" lon="1.97852">
        <ele>79.93</ele>
        <time>2021-03-12T08:53:13Z</time>
      </trkpt>
      <trkpt lat="48.60648" lon="1.97831">
        <ele>79.93</ele>
        <time>2021-03-12T08:53:26Z</time>
      </trkpt>
      <trkpt lat="48.60625" lon="1.9781">
        <ele>80.41</ele>
        <time>2021-03-12T08:53:45Z</time>
      </trkpt>
      <trkpt lat="48.60603" lon="1.9778">
        <ele>81.37</ele>
        <time>2021-03-12T08:54:01Z</time>
      </trkpt>
      <trkpt lat="48.60577" lon="1.97756">
        <ele>81.85</ele>
        <time>2021-03-12T08:54:19Z</time>
      </trkpt>
      <trkpt lat="48.60549" lon="1.97729">
        <ele>82.33</ele>
        <time>2021-03-12T08:54:35Z</time>
      </trkpt>
      <trkpt lat="48.6053" lon="1.97708">
        <ele>83.77</ele>
        <time>2021-03-12T08:54:53Z</time>
      </trkpt>
      <trkpt lat="48.60527" lon="1.97705">
        <ele>83.29</ele>
        <time>2021-03-12T08:54:54Z</time>
      </trkpt>
      <trkpt lat="48.60532" lon="1.97711">
        <ele>82.81</ele>
        <time>2021-03-12T08:55:00Z</time>
      </trkpt>
      <trkpt lat="48.60532" lon="1.97714">
        <ele>83.29</ele>
        <time>2021-03-12T08:55:02Z</time>
      </trkpt>
      <trkpt lat="48.60532" lon="1.97717">
        <ele>83.29</ele>
        <time>2021-03-12T08:55:04Z</time>
      </trkpt>
      <trkpt lat="48.60526" lon="1.97729">
        <ele>84.73</ele>
        <time>2021-03-12T08:55:12Z</time>
      </trkpt>
      <trkpt lat="48.60515" lon="1.97751">
        <ele>84.25</ele>
        <time>2021-03-12T08:55:25Z</time>
      </trkpt>
      <trkpt lat="48.60513" lon="1.97759">
        <ele>83.77</ele>
        <time>2021-03-12T08:55:29Z</time>
      </trkpt>
      <trkpt lat="48.60506" lon="1.97772">
        <ele>83.77</ele>
        <time>2021-03-12T08:55:39Z</time>
      </trkpt>
      <trkpt lat="48.60501" lon="1.97781">
        <ele>84.73</ele>
        <time>2021-03-12T08:55:45Z</time>
      </trkpt>
      <trkpt lat="48.60489" lon="1.97807">
        <ele>84.25</ele>
        <time>2021-03-12T08:55:58Z</time>
      </trkpt>
      <trkpt lat="48.6048" lon="1.97827">
        <ele>85.21</ele>
        <time>2021-03-12T08:56:10Z</time>
      </trkpt>
      <trkpt lat="48.60478" lon="1.97831">
        <ele>84.73</ele>
        <time>2021-03-12T08:56:12Z</time>
      </trkpt>
      <trkpt lat="48.60464" lon="1.97853">
        <ele>84.25</ele>
        <time>2021-03-12T08:56:27Z</time>
      </trkpt>
      <trkpt lat="48.60451" lon="1.97887">
        <ele>83.77</ele>
        <time>2021-03-12T08:56:41Z</time>
      </trkpt>
      <trkpt lat="48.60438" lon="1.97927">
        <ele>83.77</ele>
        <time>2021-03-12T08:56:57Z</time>
      </trkpt>
      <trkpt lat="48.60431" lon="1.9794">
        <ele>83.29</ele>
        <time>2021-03-12T08:57:04Z</time>
      </trkpt>
      <trkpt lat="48.60419" lon="1.97961">
        <ele>83.29</ele>
        <time>2021-03-12T08:57:17Z</time>
      </trkpt>
      <trkpt lat="48.60406" lon="1.97981">
        <ele>83.77</ele>
        <time>2021-03-12T08:57:31Z</time>
      </trkpt>
      <trkpt lat="48.60403" lon="1.97986">
        <ele>83.77</ele>
        <time>2021-03-12T08:57:34Z</time>
      </trkpt>
      <trkpt lat="48.60392" lon="1.98016">
        <ele>82.81</ele>
        <time>2021-03-12T08:57:47Z</time>
      </trkpt>
      <trkpt lat="48.60388" lon="1.98024">
        <ele>82.81</ele>
        <time>2021-03-12T08:57:52Z</time>
      </trkpt>
      <trkpt lat="48.60382" lon="1.98043">
        <ele>81.85</ele>
        <time>2021-03-12T08:58:05Z</time>
      </trkpt>
      <trkpt lat="48.60374" lon="1.98058">
        <ele>79.93</ele>
        <time>2021-03-12T08:58:19Z</time>
      </trkpt>
      <trkpt lat="48.60367" lon="1.98069">
        <ele>79.45</ele>
        <time>2021-03-12T08:58:32Z</time>
      </trkpt>
      <trkpt lat="48.60355" lon="1.98088">
        <ele>79.45</ele>
        <time>2021-03-12T08:58:46Z</time>
      </trkpt>
      <trkpt lat="48.60343" lon="1.98112">
        <ele>80.41</ele>
        <time>2021-03-12T08:58:58Z</time>
      </trkpt>
      <trkpt lat="48.60336" lon="1.98122">
        <ele>80.89</ele>
        <time>2021-03-12T08:59:13Z</time>
      </trkpt>
      <trkpt lat="48.60329" lon="1.98125">
        <ele>80.89</ele>
        <time>2021-03-12T08:59:29Z</time>
      </trkpt>
      <trkpt lat="48.60322" lon="1.98118">
        <ele>82.33</ele>
        <time>2021-03-12T08:59:48Z</time>
      </trkpt>
      <trkpt lat="48.60316" lon="1.98111">
        <ele>83.29</ele>
        <time>2021-03-12T09:00:04Z</time>
      </trkpt>
      <trkpt lat="48.60309" lon="1.98103">
        <ele>84.73</ele>
        <time>2021-03-12T09:00:19Z</time>
      </trkpt>
      <trkpt lat="48.60302" lon="1.98095">
        <ele>85.21</ele>
        <time>2021-03-12T09:00:36Z</time>
      </trkpt>
      <trkpt lat="48.60294" lon="1.98084">
        <ele>87.14</ele>
        <time>2021-03-12T09:00:54Z</time>
      </trkpt>
      <trkpt lat="48.60294" lon="1.9808">
        <ele>86.66</ele>
        <time>2021-03-12T09:01:13Z</time>
      </trkpt>
      <trkpt lat="48.60142" lon="1.97926">
        <ele>87.14</ele>
        <time>2021-03-12T09:01:24Z</time>
      </trkpt>
      <trkpt lat="48.60164" lon="1.97909">
        <ele>88.58</ele>
        <time>2021-03-12T09:01:38Z</time>
      </trkpt>
      <trkpt lat="48.60179" lon="1.97887">
        <ele>90.5</ele>
        <time>2021-03-12T09:01:53Z</time>
      </trkpt>
      <trkpt lat="48.60181" lon="1.97882">
        <ele>90.5</ele>
        <time>2021-03-12T09:01:56Z</time>
      </trkpt>
      <trkpt lat="48.60195" lon="1.97847">
        <ele>92.9</ele>
        <time>2021-03-12T09:02:14Z</time>
      </trkpt>
      <trkpt lat="48.60211" lon="1.97811">
        <ele>94.35</ele>
        <time>2021-03-12T09:02:31Z</time>
      </trkpt>
      <trkpt lat="48.60225" lon="1.97778">
        <ele>96.75</ele>
        <time>2021-03-12T09:02:49Z</time>
      </trkpt>
      <trkpt lat="48.60233" lon="1.97746">
        <ele>98.67</ele>
        <time>2021-03-12T09:03:07Z</time>
      </trkpt>
      <trkpt lat="48.60242" lon="1.97719">
        <ele>100.11</ele>
        <time>2021-03-12T09:03:21Z</time>
      </trkpt>
      <trkpt lat="48.60252" lon="1.97694">
        <ele>102.04</ele>
        <time>2021-03-12T09:03:37Z</time>
      </trkpt>
      <trkpt lat="48.60268" lon="1.97672">
        <ele>102.52</ele>
        <time>2021-03-12T09:03:53Z</time>
      </trkpt>
      <trkpt lat="48.60275" lon="1.97645">
        <ele>102.52</ele>
        <time>2021-03-12T09:04:09Z</time>
      </trkpt>
      <trkpt lat="48.60285" lon="1.97618">
        <ele>103.48</ele>
        <time>2021-03-12T09:04:25Z</time>
      </trkpt>
      <trkpt lat="48.603" lon="1.97598">
        <ele>103</ele>
        <time>2021-03-12T09:04:41Z</time>
      </trkpt>
      <trkpt lat="48.60306" lon="1.97568">
        <ele>102.04</ele>
        <time>2021-03-12T09:04:58Z</time>
      </trkpt>
      <trkpt lat="48.60306" lon="1.97551">
        <ele>98.67</ele>
        <time>2021-03-12T09:05:11Z</time>
      </trkpt>
      <trkpt lat="48.60306" lon="1.97532">
        <ele>95.79</ele>
        <time>2021-03-12T09:05:25Z</time>
      </trkpt>
      <trkpt lat="48.60313" lon="1.97514">
        <ele>94.35</ele>
        <time>2021-03-12T09:05:32Z</time>
      </trkpt>
      <trkpt lat="48.60315" lon="1.97511">
        <ele>96.27</ele>
        <time>2021-03-12T09:05:35Z</time>
      </trkpt>
      <trkpt lat="48.60309" lon="1.97502">
        <ele>95.79</ele>
        <time>2021-03-12T09:05:43Z</time>
      </trkpt>
      <trkpt lat="48.60286" lon="1.97476">
        <ele>98.19</ele>
        <time>2021-03-12T09:05:58Z</time>
      </trkpt>
      <trkpt lat="48.60276" lon="1.9746">
        <ele>100.11</ele>
        <time>2021-03-12T09:06:11Z</time>
      </trkpt>
      <trkpt lat="48.60262" lon="1.97446">
        <ele>103.48</ele>
        <time>2021-03-12T09:06:26Z</time>
      </trkpt>
      <trkpt lat="48.60256" lon="1.9744">
        <ele>106.84</ele>
        <time>2021-03-12T09:06:42Z</time>
      </trkpt>
      <trkpt lat="48.60248" lon="1.9743">
        <ele>110.21</ele>
        <time>2021-03-12T09:06:54Z</time>
      </trkpt>
      <trkpt lat="48.60238" lon="1.97418">
        <ele>113.09</ele>
        <time>2021-03-12T09:07:09Z</time>
      </trkpt>
      <trkpt lat="48.60224" lon="1.974">
        <ele>115.5</ele>
        <time>2021-03-12T09:07:26Z</time>
      </trkpt>
      <trkpt lat="48.60214" lon="1.9739">
        <ele>117.9</ele>
        <time>2021-03-12T09:07:41Z</time>
      </trkpt>
      <trkpt lat="48.60204" lon="1.97381">
        <ele>117.42</ele>
        <time>2021-03-12T09:07:52Z</time>
      </trkpt>
      <trkpt lat="48.60197" lon="1.97378">
        <ele>118.38</ele>
        <time>2021-03-12T09:08:07Z</time>
      </trkpt>
      <trkpt lat="48.60192" lon="1.97372">
        <ele>118.86</ele>
        <time>2021-03-12T09:08:17Z</time>
      </trkpt>
      <trkpt lat="48.6019" lon="1.97368">
        <ele>119.34</ele>
        <time>2021-03-12T09:08:29Z</time>
      </trkpt>
      <trkpt lat="48.60187" lon="1.97361">
        <ele>119.34</ele>
        <time>2021-03-12T09:08:45Z</time>
      </trkpt>
      <trkpt lat="48.60171" lon="1.97343">
        <ele>120.3</ele>
        <time>2021-03-12T09:09:01Z</time>
      </trkpt>
      <trkpt lat="48.60165" lon="1.97329">
        <ele>121.74</ele>
        <time>2021-03-12T09:09:16Z</time>
      </trkpt>
      <trkpt lat="48.60166" lon="1.97328">
        <ele>121.26</ele>
        <time>2021-03-12T09:09:38Z</time>
      </trkpt>
      <trkpt lat="48.60167" lon="1.97329">
        <ele>121.26</ele>
        <time>2021-03-12T09:10:00Z</time>
      </trkpt>
      <trkpt lat="48.60167" lon="1.97328">
        <ele>121.74</ele>
        <time>2021-03-12T09:10:17Z</time>
      </trkpt>
      <trkpt lat="48.60165" lon="1.97328">
        <ele>121.74</ele>
        <time>2021-03-12T09:10:29Z</time>
      </trkpt>
      <trkpt lat="48.60163" lon="1.97329">
        <ele>122.22</ele>
        <time>2021-03-12T09:10:43Z</time>
      </trkpt>
      <trkpt lat="48.60163" lon="1.97329">
        <ele>122.22</ele>
        <time>2021-03-12T09:11:04Z</time>
      </trkpt>
      <trkpt lat="48.60164" lon="1.97328">
        <ele>122.22</ele>
        <time>2021-03-12T09:11:32Z</time>
      </trkpt>
      <trkpt lat="48.60163" lon="1.97319">
        <ele>122.71</ele>
        <time>2021-03-12T09:11:48Z</time>
      </trkpt>
      <trkpt lat="48.60168" lon="1.97292">
        <ele>122.71</ele>
        <time>2021-03-12T09:12:06Z</time>
      </trkpt>
      <trkpt lat="48.60178" lon="1.97268">
        <ele>122.22</ele>
        <time>2021-03-12T09:12:18Z</time>
      </trkpt>
      <trkpt lat="48.6019" lon="1.97241">
        <ele>119.34</ele>
        <time>2021-03-12T09:12:35Z</time>
      </trkpt>
      <trkpt lat="48.60199" lon="1.97222">
        <ele>115.98</ele>
        <time>2021-03-12T09:12:47Z</time>
      </trkpt>
      <trkpt lat="48.60201" lon="1.97209">
        <ele>112.61</ele>
        <time>2021-03-12T09:12:58Z</time>
      </trkpt>
      <trkpt lat="48.60207" lon="1.97193">
        <ele>109.73</ele>
        <time>2021-03-12T09:13:10Z</time>
      </trkpt>
      <trkpt lat="48.60217" lon="1.97172">
        <ele>106.36</ele>
        <time>2021-03-12T09:13:26Z</time>
      </trkpt>
      <trkpt lat="48.60224" lon="1.97145">
        <ele>104.44</ele>
        <time>2021-03-12T09:13:41Z</time>
      </trkpt>
      <trkpt lat="48.60239" lon="1.97112">
        <ele>102.52</ele>
        <time>2021-03-12T09:13:58Z</time>
      </trkpt>
      <trkpt lat="48.60252" lon="1.97104">
        <ele>101.08</ele>
        <time>2021-03-12T09:14:13Z</time>
      </trkpt>
      <trkpt lat="48.60275" lon="1.97122">
        <ele>101.56</ele>
        <time>2021-03-12T09:14:28Z</time>
      </trkpt>
      <trkpt lat="48.60278" lon="1.97142">
        <ele>100.6</ele>
        <time>2021-03-12T09:14:39Z</time>
      </trkpt>
      <trkpt lat="48.60282" lon="1.97164">
        <ele>100.6</ele>
        <time>2021-03-12T09:14:50Z</time>
      </trkpt>
      <trkpt lat="48.60288" lon="1.97175">
        <ele>100.6</ele>
        <time>2021-03-12T09:14:57Z</time>
      </trkpt>
      <trkpt lat="48.60295" lon="1.97181">
        <ele>100.11</ele>
        <time>2021-03-12T09:15:03Z</time>
      </trkpt>
      <trkpt lat="48.60308" lon="1.972">
        <ele>99.63</ele>
        <time>2021-03-12T09:15:17Z</time>
      </trkpt>
      <trkpt lat="48.60309" lon="1.972">
        <ele>99.15</ele>
        <time>2021-03-12T09:15:18Z</time>
      </trkpt>
      <trkpt lat="48.60318" lon="1.9722">
        <ele>98.67</ele>
        <time>2021-03-12T09:15:32Z</time>
      </trkpt>
      <trkpt lat="48.60328" lon="1.97255">
        <ele>98.19</ele>
        <time>2021-03-12T09:15:46Z</time>
      </trkpt>
      <trkpt lat="48.60332" lon="1.97269">
        <ele>98.19</ele>
        <time>2021-03-12T09:15:52Z</time>
      </trkpt>
      <trkpt lat="48.60348" lon="1.97289">
        <ele>97.23</ele>
        <time>2021-03-12T09:16:08Z</time>
      </trkpt>
      <trkpt lat="48.60366" lon="1.97308">
        <ele>95.79</ele>
        <time>2021-03-12T09:16:25Z</time>
      </trkpt>
      <trkpt lat="48.60375" lon="1.9729">
        <ele>94.83</ele>
        <time>2021-03-12T09:16:39Z</time>
      </trkpt>
      <trkpt lat="48.60381" lon="1.97267">
        <ele>94.83</ele>
        <time>2021-03-12T09:16:56Z</time>
      </trkpt>
      <trkpt lat="48.60383" lon="1.97278">
        <ele>93.87</ele>
        <time>2021-03-12T09:17:08Z</time>
      </trkpt>
      <trkpt lat="48.60374" lon="1.97297">
        <ele>95.31</ele>
        <time>2021-03-12T09:17:18Z</time>
      </trkpt>
      <trkpt lat="48.6038" lon="1.97315">
        <ele>95.31</ele>
        <time>2021-03-12T09:17:32Z</time>
      </trkpt>
      <trkpt lat="48.60381" lon="1.97317">
        <ele>95.31</ele>
        <time>2021-03-12T09:17:33Z</time>
      </trkpt>
      <trkpt lat="48.60387" lon="1.97324">
        <ele>95.31</ele>
        <time>2021-03-12T09:17:37Z</time>
      </trkpt>
      <trkpt lat="48.60391" lon="1.97328">
        <ele>94.83</ele>
        <time>2021-03-12T09:17:40Z</time>
      </trkpt>
      <trkpt lat="48.60405" lon="1.97346">
        <ele>93.87</ele>
        <time>2021-03-12T09:17:50Z</time>
      </trkpt>
      <trkpt lat="48.60411" lon="1.97353">
        <ele>93.39</ele>
        <time>2021-03-12T09:17:55Z</time>
      </trkpt>
      <trkpt lat="48.60435" lon="1.97382">
        <ele>92.42</ele>
        <time>2021-03-12T09:18:13Z</time>
      </trkpt>
      <trkpt lat="48.60452" lon="1.97402">
        <ele>93.39</ele>
        <time>2021-03-12T09:18:29Z</time>
      </trkpt>
      <trkpt lat="48.60458" lon="1.97418">
        <ele>91.94</ele>
        <time>2021-03-12T09:18:40Z</time>
      </trkpt>
      <trkpt lat="48.60468" lon="1.97432">
        <ele>91.46</ele>
        <time>2021-03-12T09:18:48Z</time>
      </trkpt>
      <trkpt lat="48.60492" lon="1.97453">
        <ele>91.46</ele>
        <time>2021-03-12T09:19:05Z</time>
      </trkpt>
      <trkpt lat="48.60518" lon="1.97461">
        <ele>91.46</ele>
        <time>2021-03-12T09:19:23Z</time>
      </trkpt>
      <trkpt lat="48.60538" lon="1.97478">
        <ele>90.5</ele>
        <time>2021-03-12T09:19:40Z</time>
      </trkpt>
      <trkpt lat="48.60563" lon="1.97509">
        <ele>89.54</ele>
        <time>2021-03-12T09:19:59Z</time>
      </trkpt>
      <trkpt lat="48.60585" lon="1.97535">
        <ele>89.06</ele>
        <time>2021-03-12T09:20:16Z</time>
      </trkpt>
      <trkpt lat="48.60584" lon="1.97554">
        <ele>88.58</ele>
        <time>2021-03-12T09:20:29Z</time>
      </trkpt>
      <trkpt lat="48.60575" lon="1.97565">
        <ele>88.1</ele>
        <time>2021-03-12T09:20:41Z</time>
      </trkpt>
      <trkpt lat="48.60569" lon="1.97573">
        <ele>88.58</ele>
        <time>2021-03-12T09:20:45Z</time>
      </trkpt>
      <trkpt lat="48.60577" lon="1.97594">
        <ele>89.06</ele>
        <time>2021-03-12T09:20:59Z</time>
      </trkpt>
      <trkpt lat="48.60577" lon="1.97604">
        <ele>88.1</ele>
        <time>2021-03-12T09:21:03Z</time>
      </trkpt>
      <trkpt lat="48.60576" lon="1.97651">
        <ele>88.58</ele>
        <time>2021-03-12T09:21:19Z</time>
      </trkpt>
      <trkpt lat="48.6056" lon="1.97664">
        <ele>88.58</ele>
        <time>2021-03-12T09:21:35Z</time>
      </trkpt>
      <trkpt lat="48.60556" lon="1.97662">
        <ele>90.02</ele>
        <time>2021-03-12T09:21:38Z</time>
      </trkpt>
      <trkpt lat="48.60548" lon="1.9766">
        <ele>90.98</ele>
        <time>2021-03-12T09:21:53Z</time>
      </trkpt>
      <trkpt lat="48.60543" lon="1.97676">
        <ele>90.98</ele>
        <time>2021-03-12T09:22:05Z</time>
      </trkpt>
      <trkpt lat="48.60537" lon="1.97696">
        <ele>91.46</ele>
        <time>2021-03-12T09:22:13Z</time>
      </trkpt>
      <trkpt lat="48.60535" lon="1.9771">
        <ele>91.94</ele>
        <time>2021-03-12T09:22:20Z</time>
      </trkpt>
      <trkpt lat="48.6055" lon="1.97731">
        <ele>91.46</ele>
        <time>2021-03-12T09:22:32Z</time>
      </trkpt>
      <trkpt lat="48.60568" lon="1.97751">
        <ele>90.98</ele>
        <time>2021-03-12T09:22:45Z</time>
      </trkpt>
      <trkpt lat="48.60589" lon="1.9777">
        <ele>90.02</ele>
        <time>2021-03-12T09:23:02Z</time>
      </trkpt>
      <trkpt lat="48.6061" lon="1.9779">
        <ele>89.06</ele>
        <time>2021-03-12T09:23:19Z</time>
      </trkpt>
      <trkpt lat="48.60629" lon="1.97811">
        <ele>88.58</ele>
        <time>2021-03-12T09:23:36Z</time>
      </trkpt>
      <trkpt lat="48.60653" lon="1.97837">
        <ele>87.62</ele>
        <time>2021-03-12T09:23:54Z</time>
      </trkpt>
      <trkpt lat="48.60675" lon="1.97858">
        <ele>87.62</ele>
        <time>2021-03-12T09:24:12Z</time>
      </trkpt>
      <trkpt lat="48.60697" lon="1.9788">
        <ele>87.62</ele>
        <time>2021-03-12T09:24:27Z</time>
      </trkpt>
      <trkpt lat="48.60716" lon="1.97899">
        <ele>87.62</ele>
        <time>2021-03-12T09:24:42Z</time>
      </trkpt>
      <trkpt lat="48.60737" lon="1.97918">
        <ele>87.14</ele>
        <time>2021-03-12T09:24:58Z</time>
      </trkpt>
      <trkpt lat="48.60757" lon="1.97939">
        <ele>86.66</ele>
        <time>2021-03-12T09:25:15Z</time>
      </trkpt>
      <trkpt lat="48.6078" lon="1.97962">
        <ele>86.18</ele>
        <time>2021-03-12T09:25:33Z</time>
      </trkpt>
      <trkpt lat="48.60804" lon="1.9797">
        <ele>85.21</ele>
        <time>2021-03-12T09:25:50Z</time>
      </trkpt>
      <trkpt lat="48.60813" lon="1.9796">
        <ele>84.73</ele>
        <time>2021-03-12T09:26:03Z</time>
      </trkpt>
      <trkpt lat="48.60817" lon="1.9792">
        <ele>85.21</ele>
        <time>2021-03-12T09:26:18Z</time>
      </trkpt>
      <trkpt lat="48.6082" lon="1.97897">
        <ele>84.73</ele>
        <time>2021-03-12T09:26:28Z</time>
      </trkpt>
      <trkpt lat="48.60821" lon="1.97886">
        <ele>84.73</ele>
        <time>2021-03-12T09:26:32Z</time>
      </trkpt>
      <trkpt lat="48.60825" lon="1.97851">
        <ele>84.73</ele>
        <time>2021-03-12T09:26:48Z</time>
      </trkpt>
      <trkpt lat="48.60826" lon="1.97826">
        <ele>84.73</ele>
        <time>2021-03-12T09:27:04Z</time>
      </trkpt>
      <trkpt lat="48.60831" lon="1.97786">
        <ele>84.73</ele>
        <time>2021-03-12T09:27:18Z</time>
      </trkpt>
      <trkpt lat="48.60832" lon="1.97774">
        <ele>84.73</ele>
        <time>2021-03-12T09:27:23Z</time>
      </trkpt>
      <trkpt lat="48.60833" lon="1.97754">
        <ele>85.69</ele>
        <time>2021-03-12T09:27:35Z</time>
      </trkpt>
      <trkpt lat="48.60837" lon="1.97722">
        <ele>85.21</ele>
        <time>2021-03-12T09:27:49Z</time>
      </trkpt>
      <trkpt lat="48.60838" lon="1.97683">
        <ele>85.69</ele>
        <time>2021-03-12T09:28:04Z</time>
      </trkpt>
      <trkpt lat="48.60835" lon="1.97649">
        <ele>86.66</ele>
        <time>2021-03-12T09:28:21Z</time>
      </trkpt>
      <trkpt lat="48.60831" lon="1.9761">
        <ele>86.18</ele>
        <time>2021-03-12T09:28:37Z</time>
      </trkpt>
      <trkpt lat="48.60822" lon="1.97576">
        <ele>86.18</ele>
        <time>2021-03-12T09:28:55Z</time>
      </trkpt>
      <trkpt lat="48.60814" lon="1.97546">
        <ele>86.18</ele>
        <time>2021-03-12T09:29:09Z</time>
      </trkpt>
      <trkpt lat="48.60799" lon="1.97518">
        <ele>87.14</ele>
        <time>2021-03-12T09:29:23Z</time>
      </trkpt>
      <trkpt lat="48.60793" lon="1.97502">
        <ele>87.14</ele>
        <time>2021-03-12T09:29:32Z</time>
      </trkpt>
      <trkpt lat="48.6079" lon="1.97472">
        <ele>87.14</ele>
        <time>2021-03-12T09:29:45Z</time>
      </trkpt>
      <trkpt lat="48.60786" lon="1.97445">
        <ele>87.14</ele>
        <time>2021-03-12T09:29:59Z</time>
      </trkpt>
      <trkpt lat="48.60771" lon="1.97441">
        <ele>88.1</ele>
        <time>2021-03-12T09:30:13Z</time>
      </trkpt>
      <trkpt lat="48.60755" lon="1.97448">
        <ele>88.58</ele>
        <time>2021-03-12T09:30:26Z</time>
      </trkpt>
      <trkpt lat="48.60744" lon="1.97452">
        <ele>88.58</ele>
        <time>2021-03-12T09:30:35Z</time>
      </trkpt>
      <trkpt lat="48.60722" lon="1.97466">
        <ele>89.54</ele>
        <time>2021-03-12T09:30:50Z</time>
      </trkpt>
      <trkpt lat="48.60697" lon="1.97474">
        <ele>90.5</ele>
        <time>2021-03-12T09:31:06Z</time>
      </trkpt>
      <trkpt lat="48.60693" lon="1.97473">
        <ele>90.98</ele>
        <time>2021-03-12T09:31:09Z</time>
      </trkpt>
      <trkpt lat="48.60674" lon="1.97468">
        <ele>90.5</ele>
        <time>2021-03-12T09:31:26Z</time>
      </trkpt>
      <trkpt lat="48.60657" lon="1.97451">
        <ele>91.94</ele>
        <time>2021-03-12T09:31:40Z</time>
      </trkpt>
      <trkpt lat="48.60636" lon="1.97429">
        <ele>91.94</ele>
        <time>2021-03-12T09:31:56Z</time>
      </trkpt>
      <trkpt lat="48.6062" lon="1.97406">
        <ele>93.39</ele>
        <time>2021-03-12T09:32:11Z</time>
      </trkpt>
      <trkpt lat="48.60609" lon="1.9738">
        <ele>93.87</ele>
        <time>2021-03-12T09:32:26Z</time>
      </trkpt>
      <trkpt lat="48.60593" lon="1.9736">
        <ele>94.35</ele>
        <time>2021-03-12T09:32:41Z</time>
      </trkpt>
      <trkpt lat="48.60577" lon="1.9734">
        <ele>94.35</ele>
        <time>2021-03-12T09:32:55Z</time>
      </trkpt>
      <trkpt lat="48.60564" lon="1.97326">
        <ele>95.31</ele>
        <time>2021-03-12T09:33:10Z</time>
      </trkpt>
      <trkpt lat="48.60544" lon="1.97304">
        <ele>95.79</ele>
        <time>2021-03-12T09:33:25Z</time>
      </trkpt>
      <trkpt lat="48.60519" lon="1.97294">
        <ele>96.75</ele>
        <time>2021-03-12T09:33:41Z</time>
      </trkpt>
      <trkpt lat="48.60511" lon="1.97291">
        <ele>96.75</ele>
        <time>2021-03-12T09:33:47Z</time>
      </trkpt>
      <trkpt lat="48.60503" lon="1.97288">
        <ele>97.23</ele>
        <time>2021-03-12T09:33:52Z</time>
      </trkpt>
      <trkpt lat="48.6048" lon="1.9727">
        <ele>98.19</ele>
        <time>2021-03-12T09:34:07Z</time>
      </trkpt>
      <trkpt lat="48.60477" lon="1.97269">
        <ele>98.19</ele>
        <time>2021-03-12T09:34:09Z</time>
      </trkpt>
      <trkpt lat="48.60453" lon="1.97258">
        <ele>99.63</ele>
        <time>2021-03-12T09:34:24Z</time>
      </trkpt>
      <trkpt lat="48.60436" lon="1.97248">
        <ele>99.15</ele>
        <time>2021-03-12T09:34:36Z</time>
      </trkpt>
      <trkpt lat="48.60416" lon="1.97224">
        <ele>101.08</ele>
        <time>2021-03-12T09:34:53Z</time>
      </trkpt>
      <trkpt lat="48.60401" lon="1.97206">
        <ele>101.56</ele>
        <time>2021-03-12T09:35:11Z</time>
      </trkpt>
      <trkpt lat="48.60384" lon="1.97177">
        <ele>102.04</ele>
        <time>2021-03-12T09:35:26Z</time>
      </trkpt>
      <trkpt lat="48.60372" lon="1.97158">
        <ele>102.52</ele>
        <time>2021-03-12T09:35:37Z</time>
      </trkpt>
      <trkpt lat="48.60357" lon="1.97141">
        <ele>102.52</ele>
        <time>2021-03-12T09:35:50Z</time>
      </trkpt>
      <trkpt lat="48.60339" lon="1.97116">
        <ele>102.52</ele>
        <time>2021-03-12T09:36:07Z</time>
      </trkpt>
      <trkpt lat="48.60324" lon="1.97101">
        <ele>102.52</ele>
        <time>2021-03-12T09:36:23Z</time>
      </trkpt>
      <trkpt lat="48.60311" lon="1.97072">
        <ele>103</ele>
        <time>2021-03-12T09:36:40Z</time>
      </trkpt>
      <trkpt lat="48.603" lon="1.97043">
        <ele>103.48</ele>
        <time>2021-03-12T09:36:57Z</time>
      </trkpt>
      <trkpt lat="48.6028" lon="1.97045">
        <ele>104.44</ele>
        <time>2021-03-12T09:37:11Z</time>
      </trkpt>
      <trkpt lat="48.60274" lon="1.97049">
        <ele>104.92</ele>
        <time>2021-03-12T09:37:18Z</time>
      </trkpt>
      <trkpt lat="48.60263" lon="1.97065">
        <ele>105.88</ele>
        <time>2021-03-12T09:37:30Z</time>
      </trkpt>
      <trkpt lat="48.6025" lon="1.97083">
        <ele>107.32</ele>
        <time>2021-03-12T09:37:44Z</time>
      </trkpt>
      <trkpt lat="48.60234" lon="1.97098">
        <ele>108.77</ele>
        <time>2021-03-12T09:38:00Z</time>
      </trkpt>
      <trkpt lat="48.60218" lon="1.97092">
        <ele>109.73</ele>
        <time>2021-03-12T09:38:14Z</time>
      </trkpt>
      <trkpt lat="48.60199" lon="1.97085">
        <ele>111.17</ele>
        <time>2021-03-12T09:38:30Z</time>
      </trkpt>
      <trkpt lat="48.6018" lon="1.9708">
        <ele>113.09</ele>
        <time>2021-03-12T09:38:45Z</time>
      </trkpt>
      <trkpt lat="48.60167" lon="1.97076">
        <ele>113.57</ele>
        <time>2021-03-12T09:38:53Z</time>
      </trkpt>
      <trkpt lat="48.60149" lon="1.97079">
        <ele>115.01</ele>
        <time>2021-03-12T09:39:06Z</time>
      </trkpt>
      <trkpt lat="48.60127" lon="1.97079">
        <ele>116.94</ele>
        <time>2021-03-12T09:39:24Z</time>
      </trkpt>
      <trkpt lat="48.60121" lon="1.97077">
        <ele>117.42</ele>
        <time>2021-03-12T09:39:28Z</time>
      </trkpt>
      <trkpt lat="48.60104" lon="1.97075">
        <ele>119.82</ele>
        <time>2021-03-12T09:39:43Z</time>
      </trkpt>
      <trkpt lat="48.60089" lon="1.97081">
        <ele>120.78</ele>
        <time>2021-03-12T09:39:57Z</time>
      </trkpt>
      <trkpt lat="48.60081" lon="1.97087">
        <ele>121.26</ele>
        <time>2021-03-12T09:40:05Z</time>
      </trkpt>
      <trkpt lat="48.60056" lon="1.97102">
        <ele>121.74</ele>
        <time>2021-03-12T09:40:21Z</time>
      </trkpt>
      <trkpt lat="48.60044" lon="1.9711">
        <ele>121.74</ele>
        <time>2021-03-12T09:40:28Z</time>
      </trkpt>
      <trkpt lat="48.60031" lon="1.97123">
        <ele>121.26</ele>
        <time>2021-03-12T09:40:38Z</time>
      </trkpt>
      <trkpt lat="48.60027" lon="1.97129">
        <ele>122.22</ele>
        <time>2021-03-12T09:40:42Z</time>
      </trkpt>
      <trkpt lat="48.60007" lon="1.9714">
        <ele>123.19</ele>
        <time>2021-03-12T09:40:59Z</time>
      </trkpt>
      <trkpt lat="48.59991" lon="1.97138">
        <ele>123.19</ele>
        <time>2021-03-12T09:41:15Z</time>
      </trkpt>
      <trkpt lat="48.59972" lon="1.97142">
        <ele>122.71</ele>
        <time>2021-03-12T09:41:28Z</time>
      </trkpt>
      <trkpt lat="48.59946" lon="1.9715">
        <ele>121.26</ele>
        <time>2021-03-12T09:41:47Z</time>
      </trkpt>
      <trkpt lat="48.59926" lon="1.97158">
        <ele>119.82</ele>
        <time>2021-03-12T09:42:04Z</time>
      </trkpt>
      <trkpt lat="48.599" lon="1.97165">
        <ele>119.34</ele>
        <time>2021-03-12T09:42:20Z</time>
      </trkpt>
      <trkpt lat="48.59886" lon="1.9717">
        <ele>117.42</ele>
        <time>2021-03-12T09:42:38Z</time>
      </trkpt>
      <trkpt lat="48.59869" lon="1.97178">
        <ele>117.42</ele>
        <time>2021-03-12T09:42:51Z</time>
      </trkpt>
      <trkpt lat="48.59847" lon="1.9719">
        <ele>116.94</ele>
        <time>2021-03-12T09:43:06Z</time>
      </trkpt>
      <trkpt lat="48.59842" lon="1.97191">
        <ele>116.94</ele>
        <time>2021-03-12T09:43:09Z</time>
      </trkpt>
      <trkpt lat="48.59815" lon="1.97204">
        <ele>116.94</ele>
        <time>2021-03-12T09:43:24Z</time>
      </trkpt>
      <trkpt lat="48.59802" lon="1.97211">
        <ele>115.98</ele>
        <time>2021-03-12T09:43:37Z</time>
      </trkpt>
      <trkpt lat="48.5978" lon="1.97219">
        <ele>116.94</ele>
        <time>2021-03-12T09:43:54Z</time>
      </trkpt>
      <trkpt lat="48.59768" lon="1.97223">
        <ele>117.42</ele>
        <time>2021-03-12T09:44:07Z</time>
      </trkpt>
      <trkpt lat="48.59759" lon="1.97225">
        <ele>116.46</ele>
        <time>2021-03-12T09:44:12Z</time>
      </trkpt>
      <trkpt lat="48.59729" lon="1.9724">
        <ele>116.46</ele>
        <time>2021-03-12T09:44:33Z</time>
      </trkpt>
      <trkpt lat="48.59702" lon="1.97254">
        <ele>114.53</ele>
        <time>2021-03-12T09:44:50Z</time>
      </trkpt>
      <trkpt lat="48.59684" lon="1.97264">
        <ele>114.05</ele>
        <time>2021-03-12T09:45:05Z</time>
      </trkpt>
      <trkpt lat="48.59656" lon="1.97284">
        <ele>115.98</ele>
        <time>2021-03-12T09:45:24Z</time>
      </trkpt>
      <trkpt lat="48.59636" lon="1.97296">
        <ele>115.5</ele>
        <time>2021-03-12T09:45:40Z</time>
      </trkpt>
      <trkpt lat="48.59619" lon="1.97309">
        <ele>118.38</ele>
        <time>2021-03-12T09:45:57Z</time>
      </trkpt>
      <trkpt lat="48.596" lon="1.9732">
        <ele>118.86</ele>
        <time>2021-03-12T09:46:13Z</time>
      </trkpt>
      <trkpt lat="48.59576" lon="1.9733">
        <ele>120.3</ele>
        <time>2021-03-12T09:46:30Z</time>
      </trkpt>
      <trkpt lat="48.59559" lon="1.97338">
        <ele>119.82</ele>
        <time>2021-03-12T09:46:43Z</time>
      </trkpt>
      <trkpt lat="48.59534" lon="1.97353">
        <ele>119.82</ele>
        <time>2021-03-12T09:47:01Z</time>
      </trkpt>
      <trkpt lat="48.59517" lon="1.97367">
        <ele>120.78</ele>
        <time>2021-03-12T09:47:16Z</time>
      </trkpt>
      <trkpt lat="48.59514" lon="1.9737">
        <ele>120.78</ele>
        <time>2021-03-12T09:47:19Z</time>
      </trkpt>
      <trkpt lat="48.59498" lon="1.97386">
        <ele>123.19</ele>
        <time>2021-03-12T09:47:34Z</time>
      </trkpt>
      <trkpt lat="48.59484" lon="1.97409">
        <ele>123.67</ele>
        <time>2021-03-12T09:47:49Z</time>
      </trkpt>
      <trkpt lat="48.59473" lon="1.97434">
        <ele>122.71</ele>
        <time>2021-03-12T09:48:04Z</time>
      </trkpt>
      <trkpt lat="48.59468" lon="1.97456">
        <ele>123.67</ele>
        <time>2021-03-12T09:48:18Z</time>
      </trkpt>
      <trkpt lat="48.59468" lon="1.97458">
        <ele>123.67</ele>
        <time>2021-03-12T09:48:20Z</time>
      </trkpt>
      <trkpt lat="48.59468" lon="1.97469">
        <ele>124.15</ele>
        <time>2021-03-12T09:48:27Z</time>
      </trkpt>
      <trkpt lat="48.59476" lon="1.97498">
        <ele>125.59</ele>
        <time>2021-03-12T09:48:45Z</time>
      </trkpt>
      <trkpt lat="48.5947" lon="1.9752">
        <ele>126.07</ele>
        <time>2021-03-12T09:48:56Z</time>
      </trkpt>
      <trkpt lat="48.59456" lon="1.97544">
        <ele>127.03</ele>
        <time>2021-03-12T09:49:08Z</time>
      </trkpt>
      <trkpt lat="48.59448" lon="1.97559">
        <ele>127.51</ele>
        <time>2021-03-12T09:49:17Z</time>
      </trkpt>
      <trkpt lat="48.59445" lon="1.97563">
        <ele>127.99</ele>
        <time>2021-03-12T09:49:21Z</time>
      </trkpt>
      <trkpt lat="48.59444" lon="1.97565">
        <ele>129.43</ele>
        <time>2021-03-12T09:49:23Z</time>
      </trkpt>
      <trkpt lat="48.59438" lon="1.97585">
        <ele>129.43</ele>
        <time>2021-03-12T09:49:37Z</time>
      </trkpt>
      <trkpt lat="48.59429" lon="1.97616">
        <ele>131.36</ele>
        <time>2021-03-12T09:49:52Z</time>
      </trkpt>
      <trkpt lat="48.59428" lon="1.97643">
        <ele>133.28</ele>
        <time>2021-03-12T09:50:05Z</time>
      </trkpt>
      <trkpt lat="48.59428" lon="1.97667">
        <ele>135.68</ele>
        <time>2021-03-12T09:50:18Z</time>
      </trkpt>
      <trkpt lat="48.5943" lon="1.97685">
        <ele>137.13</ele>
        <time>2021-03-12T09:50:29Z</time>
      </trkpt>
      <trkpt lat="48.59436" lon="1.97714">
        <ele>139.53</ele>
        <time>2021-03-12T09:50:46Z</time>
      </trkpt>
      <trkpt lat="48.5944" lon="1.97735">
        <ele>140.97</ele>
        <time>2021-03-12T09:51:00Z</time>
      </trkpt>
      <trkpt lat="48.59432" lon="1.97744">
        <ele>141.93</ele>
        <time>2021-03-12T09:51:16Z</time>
      </trkpt>
      <trkpt lat="48.59428" lon="1.97744">
        <ele>143.85</ele>
        <time>2021-03-12T09:51:22Z</time>
      </trkpt>
      <trkpt lat="48.59406" lon="1.97734">
        <ele>143.37</ele>
        <time>2021-03-12T09:51:39Z</time>
      </trkpt>
      <trkpt lat="48.59394" lon="1.97725">
        <ele>143.37</ele>
        <time>2021-03-12T09:51:51Z</time>
      </trkpt>
      <trkpt lat="48.59372" lon="1.97711">
        <ele>142.89</ele>
        <time>2021-03-12T09:52:05Z</time>
      </trkpt>
      <trkpt lat="48.59353" lon="1.97709">
        <ele>142.89</ele>
        <time>2021-03-12T09:52:19Z</time>
      </trkpt>
      <trkpt lat="48.59351" lon="1.9771">
        <ele>142.41</ele>
        <time>2021-03-12T09:52:20Z</time>
      </trkpt>
      <trkpt lat="48.59342" lon="1.97736">
        <ele>142.89</ele>
        <time>2021-03-12T09:52:37Z</time>
      </trkpt>
      <trkpt lat="48.59333" lon="1.97762">
        <ele>143.37</ele>
        <time>2021-03-12T09:52:50Z</time>
      </trkpt>
      <trkpt lat="48.59333" lon="1.97764">
        <ele>143.37</ele>
        <time>2021-03-12T09:52:51Z</time>
      </trkpt>
      <trkpt lat="48.59332" lon="1.97777">
        <ele>142.89</ele>
        <time>2021-03-12T09:52:57Z</time>
      </trkpt>
      <trkpt lat="48.59336" lon="1.97791">
        <ele>142.41</ele>
        <time>2021-03-12T09:53:04Z</time>
      </trkpt>
      <trkpt lat="48.59345" lon="1.97816">
        <ele>142.89</ele>
        <time>2021-03-12T09:53:19Z</time>
      </trkpt>
      <trkpt lat="48.59356" lon="1.97848">
        <ele>143.37</ele>
        <time>2021-03-12T09:53:35Z</time>
      </trkpt>
      <trkpt lat="48.59359" lon="1.97855">
        <ele>142.89</ele>
        <time>2021-03-12T09:53:40Z</time>
      </trkpt>
      <trkpt lat="48.59361" lon="1.97863">
        <ele>143.37</ele>
        <time>2021-03-12T09:53:44Z</time>
      </trkpt>
      <trkpt lat="48.59368" lon="1.97884">
        <ele>142.89</ele>
        <time>2021-03-12T09:53:56Z</time>
      </trkpt>
      <trkpt lat="48.5937" lon="1.97908">
        <ele>142.41</ele>
        <time>2021-03-12T09:54:08Z</time>
      </trkpt>
      <trkpt lat="48.5937" lon="1.97911">
        <ele>142.41</ele>
        <time>2021-03-12T09:54:09Z</time>
      </trkpt>
      <trkpt lat="48.59369" lon="1.97927">
        <ele>142.41</ele>
        <time>2021-03-12T09:54:15Z</time>
      </trkpt>
      <trkpt lat="48.59367" lon="1.97949">
        <ele>143.37</ele>
        <time>2021-03-12T09:54:26Z</time>
      </trkpt>
      <trkpt lat="48.59363" lon="1.97962">
        <ele>143.85</ele>
        <time>2021-03-12T09:54:33Z</time>
      </trkpt>
      <trkpt lat="48.59356" lon="1.97986">
        <ele>142.89</ele>
        <time>2021-03-12T09:54:46Z</time>
      </trkpt>
      <trkpt lat="48.59353" lon="1.98007">
        <ele>142.89</ele>
        <time>2021-03-12T09:54:56Z</time>
      </trkpt>
      <trkpt lat="48.59355" lon="1.98014">
        <ele>142.41</ele>
        <time>2021-03-12T09:55:00Z</time>
      </trkpt>
      <trkpt lat="48.59357" lon="1.9802">
        <ele>142.41</ele>
        <time>2021-03-12T09:55:03Z</time>
      </trkpt>
      <trkpt lat="48.59359" lon="1.98026">
        <ele>142.89</ele>
        <time>2021-03-12T09:55:07Z</time>
      </trkpt>
      <trkpt lat="48.59368" lon="1.98046">
        <ele>142.89</ele>
        <time>2021-03-12T09:55:17Z</time>
      </trkpt>
      <trkpt lat="48.59383" lon="1.98064">
        <ele>143.37</ele>
        <time>2021-03-12T09:55:33Z</time>
      </trkpt>
      <trkpt lat="48.594" lon="1.98082">
        <ele>142.89</ele>
        <time>2021-03-12T09:55:50Z</time>
      </trkpt>
      <trkpt lat="48.59418" lon="1.98087">
        <ele>142.41</ele>
        <time>2021-03-12T09:56:06Z</time>
      </trkpt>
      <trkpt lat="48.59439" lon="1.98066">
        <ele>143.37</ele>
        <time>2021-03-12T09:56:23Z</time>
      </trkpt>
      <trkpt lat="48.5945" lon="1.98046">
        <ele>143.37</ele>
        <time>2021-03-12T09:56:36Z</time>
      </trkpt>
      <trkpt lat="48.59465" lon="1.98028">
        <ele>143.85</ele>
        <time>2021-03-12T09:56:52Z</time>
      </trkpt>
      <trkpt lat="48.59485" lon="1.98008">
        <ele>143.85</ele>
        <time>2021-03-12T09:57:07Z</time>
      </trkpt>
      <trkpt lat="48.59502" lon="1.97991">
        <ele>144.82</ele>
        <time>2021-03-12T09:57:24Z</time>
      </trkpt>
      <trkpt lat="48.59509" lon="1.97991">
        <ele>143.37</ele>
        <time>2021-03-12T09:57:38Z</time>
      </trkpt>
      <trkpt lat="48.59512" lon="1.97994">
        <ele>143.85</ele>
        <time>2021-03-12T09:57:42Z</time>
      </trkpt>
      <trkpt lat="48.59538" lon="1.98014">
        <ele>142.89</ele>
        <time>2021-03-12T09:57:57Z</time>
      </trkpt>
      <trkpt lat="48.59558" lon="1.9803">
        <ele>141.93</ele>
        <time>2021-03-12T09:58:14Z</time>
      </trkpt>
      <trkpt lat="48.59581" lon="1.98039">
        <ele>140.01</ele>
        <time>2021-03-12T09:58:30Z</time>
      </trkpt>
      <trkpt lat="48.596" lon="1.98057">
        <ele>139.05</ele>
        <time>2021-03-12T09:58:44Z</time>
      </trkpt>
      <trkpt lat="48.59608" lon="1.98066">
        <ele>138.09</ele>
        <time>2021-03-12T09:58:53Z</time>
      </trkpt>
      <trkpt lat="48.5963" lon="1.98098">
        <ele>137.61</ele>
        <time>2021-03-12T09:59:11Z</time>
      </trkpt>
      <trkpt lat="48.59646" lon="1.98117">
        <ele>136.64</ele>
        <time>2021-03-12T09:59:27Z</time>
      </trkpt>
      <trkpt lat="48.59664" lon="1.98143">
        <ele>136.64</ele>
        <time>2021-03-12T09:59:44Z</time>
      </trkpt>
      <trkpt lat="48.59679" lon="1.98163">
        <ele>135.68</ele>
        <time>2021-03-12T09:59:58Z</time>
      </trkpt>
      <trkpt lat="48.59699" lon="1.98184">
        <ele>133.76</ele>
        <time>2021-03-12T10:00:15Z</time>
      </trkpt>
      <trkpt lat="48.59716" lon="1.98199">
        <ele>132.32</ele>
        <time>2021-03-12T10:00:31Z</time>
      </trkpt>
      <trkpt lat="48.59736" lon="1.9819">
        <ele>130.4</ele>
        <time>2021-03-12T10:00:45Z</time>
      </trkpt>
      <trkpt lat="48.59744" lon="1.98177">
        <ele>129.92</ele>
        <time>2021-03-12T10:00:53Z</time>
      </trkpt>
      <trkpt lat="48.59761" lon="1.98155">
        <ele>129.43</ele>
        <time>2021-03-12T10:01:07Z</time>
      </trkpt>
      <trkpt lat="48.59778" lon="1.98132">
        <ele>128.47</ele>
        <time>2021-03-12T10:01:23Z</time>
      </trkpt>
      <trkpt lat="48.59796" lon="1.98103">
        <ele>129.43</ele>
        <time>2021-03-12T10:01:41Z</time>
      </trkpt>
      <trkpt lat="48.59813" lon="1.98081">
        <ele>129.92</ele>
        <time>2021-03-12T10:01:55Z</time>
      </trkpt>
      <trkpt lat="48.59827" lon="1.98062">
        <ele>130.88</ele>
        <time>2021-03-12T10:02:08Z</time>
      </trkpt>
      <trkpt lat="48.59844" lon="1.98039">
        <ele>131.36</ele>
        <time>2021-03-12T10:02:23Z</time>
      </trkpt>
      <trkpt lat="48.5985" lon="1.98027">
        <ele>131.84</ele>
        <time>2021-03-12T10:02:30Z</time>
      </trkpt>
      <trkpt lat="48.59863" lon="1.97995">
        <ele>130.88</ele>
        <time>2021-03-12T10:02:48Z</time>
      </trkpt>
      <trkpt lat="48.59855" lon="1.97983">
        <ele>128.47</ele>
        <time>2021-03-12T10:03:01Z</time>
      </trkpt>
      <trkpt lat="48.59844" lon="1.97973">
        <ele>125.59</ele>
        <time>2021-03-12T10:03:13Z</time>
      </trkpt>
      <trkpt lat="48.59842" lon="1.9797">
        <ele>125.11</ele>
        <time>2021-03-12T10:03:14Z</time>
      </trkpt>
      <trkpt lat="48.59829" lon="1.97953">
        <ele>121.74</ele>
        <time>2021-03-12T10:03:27Z</time>
      </trkpt>
      <trkpt lat="48.59812" lon="1.97938">
        <ele>118.86</ele>
        <time>2021-03-12T10:03:43Z</time>
      </trkpt>
      <trkpt lat="48.59803" lon="1.97926">
        <ele>116.94</ele>
        <time>2021-03-12T10:03:50Z</time>
      </trkpt>
      <trkpt lat="48.59791" lon="1.97913">
        <ele>115.01</ele>
        <time>2021-03-12T10:03:59Z</time>
      </trkpt>
      <trkpt lat="48.59774" lon="1.97896">
        <ele>113.09</ele>
        <time>2021-03-12T10:04:13Z</time>
      </trkpt>
      <trkpt lat="48.59757" lon="1.97881">
        <ele>115.5</ele>
        <time>2021-03-12T10:04:29Z</time>
      </trkpt>
      <trkpt lat="48.59742" lon="1.9787">
        <ele>114.53</ele>
        <time>2021-03-12T10:04:42Z</time>
      </trkpt>
      <trkpt lat="48.59726" lon="1.97855">
        <ele>114.53</ele>
        <time>2021-03-12T10:04:53Z</time>
      </trkpt>
      <trkpt lat="48.59704" lon="1.9784">
        <ele>115.01</ele>
        <time>2021-03-12T10:05:09Z</time>
      </trkpt>
      <trkpt lat="48.59693" lon="1.97826">
        <ele>115.98</ele>
        <time>2021-03-12T10:05:23Z</time>
      </trkpt>
      <trkpt lat="48.59691" lon="1.97818">
        <ele>115.98</ele>
        <time>2021-03-12T10:05:36Z</time>
      </trkpt>
      <trkpt lat="48.59688" lon="1.97809">
        <ele>114.53</ele>
        <time>2021-03-12T10:05:47Z</time>
      </trkpt>
      <trkpt lat="48.59669" lon="1.97787">
        <ele>116.46</ele>
        <time>2021-03-12T10:06:05Z</time>
      </trkpt>
      <trkpt lat="48.59669" lon="1.97774">
        <ele>116.46</ele>
        <time>2021-03-12T10:06:23Z</time>
      </trkpt>
      <trkpt lat="48.59679" lon="1.97757">
        <ele>114.53</ele>
        <time>2021-03-12T10:06:42Z</time>
      </trkpt>
      <trkpt lat="48.59688" lon="1.97738">
        <ele>112.13</ele>
        <time>2021-03-12T10:07:00Z</time>
      </trkpt>
      <trkpt lat="48.59709" lon="1.97736">
        <ele>110.21</ele>
        <time>2021-03-12T10:07:17Z</time>
      </trkpt>
      <trkpt lat="48.59737" lon="1.97704">
        <ele>110.21</ele>
        <time>2021-03-12T10:07:35Z</time>
      </trkpt>
      <trkpt lat="48.59749" lon="1.97669">
        <ele>110.21</ele>
        <time>2021-03-12T10:07:52Z</time>
      </trkpt>
      <trkpt lat="48.59758" lon="1.97646">
        <ele>109.25</ele>
        <time>2021-03-12T10:08:06Z</time>
      </trkpt>
      <trkpt lat="48.59759" lon="1.97624">
        <ele>108.29</ele>
        <time>2021-03-12T10:08:17Z</time>
      </trkpt>
      <trkpt lat="48.59738" lon="1.97606">
        <ele>108.29</ele>
        <time>2021-03-12T10:08:32Z</time>
      </trkpt>
      <trkpt lat="48.59713" lon="1.97586">
        <ele>107.81</ele>
        <time>2021-03-12T10:08:49Z</time>
      </trkpt>
      <trkpt lat="48.59694" lon="1.97573">
        <ele>109.73</ele>
        <time>2021-03-12T10:09:02Z</time>
      </trkpt>
      <trkpt lat="48.59681" lon="1.97558">
        <ele>111.17</ele>
        <time>2021-03-12T10:09:13Z</time>
      </trkpt>
      <trkpt lat="48.59668" lon="1.97549">
        <ele>112.61</ele>
        <time>2021-03-12T10:09:24Z</time>
      </trkpt>
      <trkpt lat="48.59666" lon="1.97547">
        <ele>112.61</ele>
        <time>2021-03-12T10:09:26Z</time>
      </trkpt>
      <trkpt lat="48.59649" lon="1.97535">
        <ele>113.57</ele>
        <time>2021-03-12T10:09:41Z</time>
      </trkpt>
      <trkpt lat="48.59631" lon="1.97525">
        <ele>114.05</ele>
        <time>2021-03-12T10:09:58Z</time>
      </trkpt>
      <trkpt lat="48.59612" lon="1.9751">
        <ele>114.05</ele>
        <time>2021-03-12T10:10:11Z</time>
      </trkpt>
      <trkpt lat="48.59596" lon="1.975">
        <ele>115.01</ele>
        <time>2021-03-12T10:10:23Z</time>
      </trkpt>
      <trkpt lat="48.59591" lon="1.97495">
        <ele>115.01</ele>
        <time>2021-03-12T10:10:28Z</time>
      </trkpt>
      <trkpt lat="48.59578" lon="1.97487">
        <ele>115.98</ele>
        <time>2021-03-12T10:10:41Z</time>
      </trkpt>
      <trkpt lat="48.59566" lon="1.9748">
        <ele>117.42</ele>
        <time>2021-03-12T10:10:54Z</time>
      </trkpt>
      <trkpt lat="48.59544" lon="1.97464">
        <ele>118.86</ele>
        <time>2021-03-12T10:11:09Z</time>
      </trkpt>
      <trkpt lat="48.59528" lon="1.97453">
        <ele>120.78</ele>
        <time>2021-03-12T10:11:23Z</time>
      </trkpt>
      <trkpt lat="48.59512" lon="1.97445">
        <ele>122.71</ele>
        <time>2021-03-12T10:11:37Z</time>
      </trkpt>
      <trkpt lat="48.59502" lon="1.97438">
        <ele>123.19</ele>
        <time>2021-03-12T10:11:46Z</time>
      </trkpt>
      <trkpt lat="48.59483" lon="1.97428">
        <ele>123.67</ele>
        <time>2021-03-12T10:12:02Z</time>
      </trkpt>
      <trkpt lat="48.59479" lon="1.97426">
        <ele>122.71</ele>
        <time>2021-03-12T10:12:05Z</time>
      </trkpt>
      <trkpt lat="48.59465" lon="1.97426">
        <ele>124.15</ele>
        <time>2021-03-12T10:12:17Z</time>
      </trkpt>
      <trkpt lat="48.59449" lon="1.97428">
        <ele>123.67</ele>
        <time>2021-03-12T10:12:32Z</time>
      </trkpt>
      <trkpt lat="48.59447" lon="1.97429">
        <ele>123.19</ele>
        <time>2021-03-12T10:12:34Z</time>
      </trkpt>
      <trkpt lat="48.59425" lon="1.97426">
        <ele>120.3</ele>
        <time>2021-03-12T10:12:48Z</time>
      </trkpt>
      <trkpt lat="48.59406" lon="1.97427">
        <ele>118.86</ele>
        <time>2021-03-12T10:13:01Z</time>
      </trkpt>
      <trkpt lat="48.59403" lon="1.97426">
        <ele>118.86</ele>
        <time>2021-03-12T10:13:05Z</time>
      </trkpt>
      <trkpt lat="48.594" lon="1.97425">
        <ele>119.34</ele>
        <time>2021-03-12T10:13:08Z</time>
      </trkpt>
      <trkpt lat="48.59374" lon="1.97423">
        <ele>118.86</ele>
        <time>2021-03-12T10:13:24Z</time>
      </trkpt>
      <trkpt lat="48.59356" lon="1.97424">
        <ele>116.94</ele>
        <time>2021-03-12T10:13:37Z</time>
      </trkpt>
      <trkpt lat="48.59349" lon="1.97425">
        <ele>116.94</ele>
        <time>2021-03-12T10:13:42Z</time>
      </trkpt>
      <trkpt lat="48.59329" lon="1.97422">
        <ele>114.53</ele>
        <time>2021-03-12T10:13:56Z</time>
      </trkpt>
      <trkpt lat="48.59312" lon="1.97423">
        <ele>113.57</ele>
        <time>2021-03-12T10:14:08Z</time>
      </trkpt>
      <trkpt lat="48.59306" lon="1.97425">
        <ele>113.57</ele>
        <time>2021-03-12T10:14:12Z</time>
      </trkpt>
      <trkpt lat="48.5929" lon="1.9742">
        <ele>112.13</ele>
        <time>2021-03-12T10:14:22Z</time>
      </trkpt>
      <trkpt lat="48.59265" lon="1.97425">
        <ele>109.73</ele>
        <time>2021-03-12T10:14:39Z</time>
      </trkpt>
      <trkpt lat="48.59247" lon="1.97428">
        <ele>109.25</ele>
        <time>2021-03-12T10:14:50Z</time>
      </trkpt>
      <trkpt lat="48.59228" lon="1.97426">
        <ele>107.81</ele>
        <time>2021-03-12T10:15:06Z</time>
      </trkpt>
      <trkpt lat="48.59209" lon="1.97414">
        <ele>106.36</ele>
        <time>2021-03-12T10:15:20Z</time>
      </trkpt>
      <trkpt lat="48.59201" lon="1.97408">
        <ele>106.36</ele>
        <time>2021-03-12T10:15:25Z</time>
      </trkpt>
      <trkpt lat="48.59175" lon="1.97386">
        <ele>104.92</ele>
        <time>2021-03-12T10:15:41Z</time>
      </trkpt>
      <trkpt lat="48.59166" lon="1.97379">
        <ele>103.96</ele>
        <time>2021-03-12T10:15:49Z</time>
      </trkpt>
      <trkpt lat="48.59141" lon="1.97357">
        <ele>103</ele>
        <time>2021-03-12T10:16:06Z</time>
      </trkpt>
      <trkpt lat="48.59138" lon="1.97354">
        <ele>103</ele>
        <time>2021-03-12T10:16:08Z</time>
      </trkpt>
      <trkpt lat="48.59118" lon="1.97336">
        <ele>102.04</ele>
        <time>2021-03-12T10:16:26Z</time>
      </trkpt>
      <trkpt lat="48.59098" lon="1.97312">
        <ele>101.08</ele>
        <time>2021-03-12T10:16:43Z</time>
      </trkpt>
      <trkpt lat="48.5908" lon="1.97299">
        <ele>100.11</ele>
        <time>2021-03-12T10:16:58Z</time>
      </trkpt>
      <trkpt lat="48.59055" lon="1.97276">
        <ele>101.08</ele>
        <time>2021-03-12T10:17:11Z</time>
      </trkpt>
      <trkpt lat="48.59043" lon="1.97268">
        <ele>100.11</ele>
        <time>2021-03-12T10:17:24Z</time>
      </trkpt>
      <trkpt lat="48.59025" lon="1.9725">
        <ele>100.11</ele>
        <time>2021-03-12T10:17:39Z</time>
      </trkpt>
      <trkpt lat="48.59023" lon="1.97237">
        <ele>98.67</ele>
        <time>2021-03-12T10:17:46Z</time>
      </trkpt>
      <trkpt lat="48.59033" lon="1.97202">
        <ele>99.63</ele>
        <time>2021-03-12T10:18:02Z</time>
      </trkpt>
      <trkpt lat="48.59035" lon="1.97167">
        <ele>100.11</ele>
        <time>2021-03-12T10:18:19Z</time>
      </trkpt>
      <trkpt lat="48.59042" lon="1.9714">
        <ele>100.11</ele>
        <time>2021-03-12T10:18:33Z</time>
      </trkpt>
      <trkpt lat="48.59048" lon="1.97098">
        <ele>99.63</ele>
        <time>2021-03-12T10:18:51Z</time>
      </trkpt>
      <trkpt lat="48.59053" lon="1.97056">
        <ele>101.08</ele>
        <time>2021-03-12T10:19:08Z</time>
      </trkpt>
      <trkpt lat="48.59063" lon="1.97024">
        <ele>101.56</ele>
        <time>2021-03-12T10:19:23Z</time>
      </trkpt>
      <trkpt lat="48.5907" lon="1.96994">
        <ele>101.56</ele>
        <time>2021-03-12T10:19:39Z</time>
      </trkpt>
      <trkpt lat="48.59078" lon="1.96955">
        <ele>100.6</ele>
        <time>2021-03-12T10:19:58Z</time>
      </trkpt>
      <trkpt lat="48.59085" lon="1.96919">
        <ele>101.56</ele>
        <time>2021-03-12T10:20:13Z</time>
      </trkpt>
      <trkpt lat="48.59103" lon="1.96882">
        <ele>102.52</ele>
        <time>2021-03-12T10:20:31Z</time>
      </trkpt>
      <trkpt lat="48.59113" lon="1.96838">
        <ele>101.56</ele>
        <time>2021-03-12T10:20:49Z</time>
      </trkpt>
      <trkpt lat="48.59119" lon="1.9681">
        <ele>102.04</ele>
        <time>2021-03-12T10:21:02Z</time>
      </trkpt>
      <trkpt lat="48.59127" lon="1.96783">
        <ele>103</ele>
        <time>2021-03-12T10:21:18Z</time>
      </trkpt>
      <trkpt lat="48.5914" lon="1.96744">
        <ele>103</ele>
        <time>2021-03-12T10:21:36Z</time>
      </trkpt>
      <trkpt lat="48.5915" lon="1.96709">
        <ele>103</ele>
        <time>2021-03-12T10:21:52Z</time>
      </trkpt>
      <trkpt lat="48.5915" lon="1.96684">
        <ele>103</ele>
        <time>2021-03-12T10:22:06Z</time>
      </trkpt>
      <trkpt lat="48.5915" lon="1.96655">
        <ele>103.48</ele>
        <time>2021-03-12T10:22:22Z</time>
      </trkpt>
      <trkpt lat="48.59161" lon="1.96622">
        <ele>104.44</ele>
        <time>2021-03-12T10:22:37Z</time>
      </trkpt>
      <trkpt lat="48.59173" lon="1.96611">
        <ele>104.92</ele>
        <time>2021-03-12T10:22:53Z</time>
      </trkpt>
      <trkpt lat="48.59177" lon="1.96608">
        <ele>104.44</ele>
        <time>2021-03-12T10:23:08Z</time>
      </trkpt>
      <trkpt lat="48.59178" lon="1.96608">
        <ele>104.44</ele>
        <time>2021-03-12T10:23:30Z</time>
      </trkpt>
      <trkpt lat="48.59178" lon="1.96609">
        <ele>104.92</ele>
        <time>2021-03-12T10:23:48Z</time>
      </trkpt>
      <trkpt lat="48.59178" lon="1.96609">
        <ele>104.92</ele>
        <time>2021-03-12T10:24:02Z</time>
      </trkpt>
    </trkseg>
  </trk>
</gpx>